sensor_id;sensor_type;location;lat;lon;timestamp;temperature;humidity
21805;DHT22;11064;47.102;15.452;2023-08-12T00:01:24;13.90;99.90
21805;DHT22;11064;47.102;15.452;2023-08-12T00:03:52;13.80;99.90
21805;DHT22;11064;47.102;15.452;2023-08-12T00:06:17;13.70;99.90
21805;DHT22;11064;47.102;15.452;2023-08-12T00:08:43;13.60;99.90
21805;DHT22;11064;47.102;15.452;2023-08-12T00:11:10;13.50;99.90
21805;DHT22;11064;47.102;15.452;2023-08-12T00:13:36;13.40;99.90
21805;DHT22;11064;47.102;15.452;2023-08-12T00:16:02;13.40;99.90
21805;DHT22;11064;47.102;15.452;2023-08-12T00:18:28;13.30;99.90
21805;DHT22;11064;47.102;15.452;2023-08-12T00:20:54;13.30;99.90
21805;DHT22;11064;47.102;15.452;2023-08-12T00:23:20;13.20;99.90
21805;DHT22;11064;47.102;15.452;2023-08-12T00:25:46;13.20;99.90
21805;DHT22;11064;47.102;15.452;2023-08-12T00:28:12;13.20;99.90
21805;DHT22;11064;47.102;15.452;2023-08-12T00:30:38;13.20;99.90
21805;DHT22;11064;47.102;15.452;2023-08-12T00:33:04;13.10;99.90
21805;DHT22;11064;47.102;15.452;2023-08-12T00:35:30;13.10;99.90
21805;DHT22;11064;47.102;15.452;2023-08-12T00:37:56;13.20;99.90
21805;DHT22;11064;47.102;15.452;2023-08-12T00:40:22;13.20;99.90
21805;DHT22;11064;47.102;15.452;2023-08-12T00:42:47;13.20;99.90
21805;DHT22;11064;47.102;15.452;2023-08-12T00:45:13;13.10;99.90
21805;DHT22;11064;47.102;15.452;2023-08-12T00:47:40;13.10;99.90
21805;DHT22;11064;47.102;15.452;2023-08-12T00:50:08;13.00;99.90
21805;DHT22;11064;47.102;15.452;2023-08-12T00:52:35;13.00;99.90
21805;DHT22;11064;47.102;15.452;2023-08-12T00:55:01;13.00;99.90
21805;DHT22;11064;47.102;15.452;2023-08-12T00:57:27;13.00;99.90
21805;DHT22;11064;47.102;15.452;2023-08-12T00:59:55;12.90;99.90
21805;DHT22;11064;47.102;15.452;2023-08-12T01:02:21;12.90;99.90
21805;DHT22;11064;47.102;15.452;2023-08-12T01:04:47;12.80;99.90
21805;DHT22;11064;47.102;15.452;2023-08-12T01:07:13;12.80;99.90
21805;DHT22;11064;47.102;15.452;2023-08-12T01:09:39;12.70;99.90
21805;DHT22;11064;47.102;15.452;2023-08-12T01:12:12;12.70;99.90
21805;DHT22;11064;47.102;15.452;2023-08-12T01:14:45;12.70;99.90
21805;DHT22;11064;47.102;15.452;2023-08-12T01:17:14;12.60;99.90
21805;DHT22;11064;47.102;15.452;2023-08-12T01:19:42;12.70;99.90
21805;DHT22;11064;47.102;15.452;2023-08-12T01:22:10;12.80;99.90
21805;DHT22;11064;47.102;15.452;2023-08-12T01:24:36;12.80;99.90
21805;DHT22;11064;47.102;15.452;2023-08-12T01:27:04;12.80;99.90
21805;DHT22;11064;47.102;15.452;2023-08-12T01:29:34;12.80;99.90
21805;DHT22;11064;47.102;15.452;2023-08-12T01:34:53;12.80;99.90
21805;DHT22;11064;47.102;15.452;2023-08-12T01:37:25;12.80;99.90
21805;DHT22;11064;47.102;15.452;2023-08-12T01:39:54;12.70;99.90
21805;DHT22;11064;47.102;15.452;2023-08-12T01:42:21;12.70;99.90
21805;DHT22;11064;47.102;15.452;2023-08-12T01:44:48;12.60;99.90
21805;DHT22;11064;47.102;15.452;2023-08-12T01:47:14;12.70;99.90
21805;DHT22;11064;47.102;15.452;2023-08-12T01:49:40;12.60;99.90
21805;DHT22;11064;47.102;15.452;2023-08-12T01:52:06;12.60;99.90
21805;DHT22;11064;47.102;15.452;2023-08-12T01:54:32;12.60;99.90
21805;DHT22;11064;47.102;15.452;2023-08-12T01:57:04;12.50;99.90
21805;DHT22;11064;47.102;15.452;2023-08-12T01:59:32;12.60;99.90
21805;DHT22;11064;47.102;15.452;2023-08-12T02:01:57;12.50;99.90
21805;DHT22;11064;47.102;15.452;2023-08-12T02:04:23;12.50;99.90
21805;DHT22;11064;47.102;15.452;2023-08-12T02:06:49;12.40;99.90
21805;DHT22;11064;47.102;15.452;2023-08-12T02:09:15;12.30;99.90
21805;DHT22;11064;47.102;15.452;2023-08-12T02:11:41;12.30;99.90
21805;DHT22;11064;47.102;15.452;2023-08-12T02:14:07;12.30;99.90
21805;DHT22;11064;47.102;15.452;2023-08-12T02:16:32;12.30;99.90
21805;DHT22;11064;47.102;15.452;2023-08-12T02:18:58;12.30;99.90
21805;DHT22;11064;47.102;15.452;2023-08-12T02:21:24;12.40;99.90
21805;DHT22;11064;47.102;15.452;2023-08-12T02:23:50;12.40;99.90
21805;DHT22;11064;47.102;15.452;2023-08-12T02:26:16;12.50;99.90
21805;DHT22;11064;47.102;15.452;2023-08-12T02:28:42;12.50;99.90
21805;DHT22;11064;47.102;15.452;2023-08-12T02:31:07;12.50;99.90
21805;DHT22;11064;47.102;15.452;2023-08-12T02:33:33;12.50;99.90
21805;DHT22;11064;47.102;15.452;2023-08-12T02:35:59;12.40;99.90
21805;DHT22;11064;47.102;15.452;2023-08-12T02:38:25;12.40;99.90
21805;DHT22;11064;47.102;15.452;2023-08-12T02:40:51;12.50;99.90
21805;DHT22;11064;47.102;15.452;2023-08-12T02:43:17;12.30;99.90
21805;DHT22;11064;47.102;15.452;2023-08-12T02:45:43;12.30;99.90
21805;DHT22;11064;47.102;15.452;2023-08-12T02:48:12;12.20;99.90
21805;DHT22;11064;47.102;15.452;2023-08-12T02:50:39;12.20;99.90
21805;DHT22;11064;47.102;15.452;2023-08-12T02:53:05;12.20;99.90
21805;DHT22;11064;47.102;15.452;2023-08-12T02:55:31;12.10;99.90
21805;DHT22;11064;47.102;15.452;2023-08-12T02:58:00;12.20;99.90
21805;DHT22;11064;47.102;15.452;2023-08-12T03:00:27;12.10;99.90
21805;DHT22;11064;47.102;15.452;2023-08-12T03:02:54;12.20;99.90
21805;DHT22;11064;47.102;15.452;2023-08-12T03:05:20;12.20;99.90
21805;DHT22;11064;47.102;15.452;2023-08-12T03:07:47;12.20;99.90
21805;DHT22;11064;47.102;15.452;2023-08-12T03:10:13;12.30;99.90
21805;DHT22;11064;47.102;15.452;2023-08-12T03:12:39;12.30;99.90
21805;DHT22;11064;47.102;15.452;2023-08-12T03:15:07;12.30;99.90
21805;DHT22;11064;47.102;15.452;2023-08-12T03:17:33;12.30;99.90
21805;DHT22;11064;47.102;15.452;2023-08-12T03:19:59;12.30;99.90
21805;DHT22;11064;47.102;15.452;2023-08-12T03:22:29;12.20;99.90
21805;DHT22;11064;47.102;15.452;2023-08-12T03:24:54;12.10;99.90
21805;DHT22;11064;47.102;15.452;2023-08-12T03:27:20;12.10;99.90
21805;DHT22;11064;47.102;15.452;2023-08-12T03:29:46;12.10;99.90
21805;DHT22;11064;47.102;15.452;2023-08-12T03:32:12;12.00;99.90
21805;DHT22;11064;47.102;15.452;2023-08-12T03:34:38;12.10;99.90
21805;DHT22;11064;47.102;15.452;2023-08-12T03:37:04;12.10;99.90
21805;DHT22;11064;47.102;15.452;2023-08-12T03:39:30;12.10;99.90
21805;DHT22;11064;47.102;15.452;2023-08-12T03:41:56;12.20;99.90
21805;DHT22;11064;47.102;15.452;2023-08-12T03:44:22;12.20;99.90
21805;DHT22;11064;47.102;15.452;2023-08-12T03:46:48;12.20;99.90
21805;DHT22;11064;47.102;15.452;2023-08-12T03:49:14;12.20;99.90
21805;DHT22;11064;47.102;15.452;2023-08-12T03:51:40;12.20;99.90
21805;DHT22;11064;47.102;15.452;2023-08-12T03:54:06;12.20;99.90
21805;DHT22;11064;47.102;15.452;2023-08-12T03:56:31;12.20;99.90
21805;DHT22;11064;47.102;15.452;2023-08-12T03:58:57;12.10;99.90
21805;DHT22;11064;47.102;15.452;2023-08-12T04:01:23;12.10;99.90
21805;DHT22;11064;47.102;15.452;2023-08-12T04:03:49;12.20;99.90
21805;DHT22;11064;47.102;15.452;2023-08-12T04:06:16;12.30;99.90
21805;DHT22;11064;47.102;15.452;2023-08-12T04:08:41;12.30;99.90
21805;DHT22;11064;47.102;15.452;2023-08-12T04:11:07;12.30;99.90
21805;DHT22;11064;47.102;15.452;2023-08-12T04:13:33;12.30;99.90
21805;DHT22;11064;47.102;15.452;2023-08-12T04:15:59;12.30;99.90
21805;DHT22;11064;47.102;15.452;2023-08-12T04:18:25;12.30;99.90
21805;DHT22;11064;47.102;15.452;2023-08-12T04:20:52;12.30;99.90
21805;DHT22;11064;47.102;15.452;2023-08-12T04:23:18;12.30;99.90
21805;DHT22;11064;47.102;15.452;2023-08-12T04:25:48;12.20;99.90
21805;DHT22;11064;47.102;15.452;2023-08-12T04:28:15;12.20;99.90
21805;DHT22;11064;47.102;15.452;2023-08-12T04:30:46;12.20;99.90
21805;DHT22;11064;47.102;15.452;2023-08-12T04:33:15;12.20;99.90
21805;DHT22;11064;47.102;15.452;2023-08-12T04:35:41;12.20;99.90
21805;DHT22;11064;47.102;15.452;2023-08-12T04:38:07;12.30;99.90
21805;DHT22;11064;47.102;15.452;2023-08-12T04:40:34;12.30;99.90
21805;DHT22;11064;47.102;15.452;2023-08-12T04:43:00;12.40;99.90
21805;DHT22;11064;47.102;15.452;2023-08-12T05:03:29;13.30;99.90
21805;DHT22;11064;47.102;15.452;2023-08-12T05:05:55;13.50;99.90
21805;DHT22;11064;47.102;15.452;2023-08-12T05:08:21;13.60;99.90
21805;DHT22;11064;47.102;15.452;2023-08-12T05:10:48;14.00;99.90
21805;DHT22;11064;47.102;15.452;2023-08-12T05:13:14;15.70;99.90
21805;DHT22;11064;47.102;15.452;2023-08-12T05:15:40;18.10;99.90
21805;DHT22;11064;47.102;15.452;2023-08-12T05:18:06;20.10;99.90
21805;DHT22;11064;47.102;15.452;2023-08-12T05:20:32;21.60;99.90
21805;DHT22;11064;47.102;15.452;2023-08-12T05:22:58;21.80;99.80
21805;DHT22;11064;47.102;15.452;2023-08-12T05:25:24;22.40;98.00
21805;DHT22;11064;47.102;15.452;2023-08-12T05:27:50;22.60;95.00
21805;DHT22;11064;47.102;15.452;2023-08-12T05:30:16;22.30;95.10
21805;DHT22;11064;47.102;15.452;2023-08-12T05:32:42;21.80;94.60
21805;DHT22;11064;47.102;15.452;2023-08-12T05:35:08;22.40;94.40
21805;DHT22;11064;47.102;15.452;2023-08-12T05:37:34;21.70;94.20
21805;DHT22;11064;47.102;15.452;2023-08-12T05:39:59;20.10;97.70
21805;DHT22;11064;47.102;15.452;2023-08-12T05:42:25;19.00;99.90
21805;DHT22;11064;47.102;15.452;2023-08-12T05:44:51;18.00;99.90
21805;DHT22;11064;47.102;15.452;2023-08-12T05:47:17;17.30;99.90
21805;DHT22;11064;47.102;15.452;2023-08-12T05:49:43;16.80;99.90
21805;DHT22;11064;47.102;15.452;2023-08-12T05:52:09;16.50;99.90
21805;DHT22;11064;47.102;15.452;2023-08-12T05:54:34;16.40;99.90
21805;DHT22;11064;47.102;15.452;2023-08-12T05:57:00;16.40;99.90
21805;DHT22;11064;47.102;15.452;2023-08-12T05:59:26;16.40;99.90
21805;DHT22;11064;47.102;15.452;2023-08-12T06:01:53;16.50;99.90
21805;DHT22;11064;47.102;15.452;2023-08-12T06:04:19;16.50;99.90
21805;DHT22;11064;47.102;15.452;2023-08-12T06:06:45;16.60;99.90
21805;DHT22;11064;47.102;15.452;2023-08-12T06:09:11;16.70;99.90
21805;DHT22;11064;47.102;15.452;2023-08-12T06:11:37;16.80;99.90
21805;DHT22;11064;47.102;15.452;2023-08-12T06:14:03;16.90;99.90
21805;DHT22;11064;47.102;15.452;2023-08-12T06:16:29;16.90;99.90
21805;DHT22;11064;47.102;15.452;2023-08-12T06:18:54;17.10;99.90
21805;DHT22;11064;47.102;15.452;2023-08-12T06:21:20;17.20;99.90
21805;DHT22;11064;47.102;15.452;2023-08-12T06:23:46;17.20;99.90
21805;DHT22;11064;47.102;15.452;2023-08-12T06:26:12;17.20;99.90
21805;DHT22;11064;47.102;15.452;2023-08-12T06:28:38;17.30;99.90
21805;DHT22;11064;47.102;15.452;2023-08-12T06:31:03;17.40;99.90
21805;DHT22;11064;47.102;15.452;2023-08-12T06:33:29;17.50;99.90
21805;DHT22;11064;47.102;15.452;2023-08-12T06:35:55;17.70;99.90
21805;DHT22;11064;47.102;15.452;2023-08-12T06:38:21;17.60;99.90
21805;DHT22;11064;47.102;15.452;2023-08-12T06:40:47;17.70;99.90
21805;DHT22;11064;47.102;15.452;2023-08-12T06:43:13;17.70;99.90
21805;DHT22;11064;47.102;15.452;2023-08-12T06:45:39;17.90;99.90
21805;DHT22;11064;47.102;15.452;2023-08-12T06:48:05;17.90;99.90
21805;DHT22;11064;47.102;15.452;2023-08-12T06:50:30;18.10;99.90
21805;DHT22;11064;47.102;15.452;2023-08-12T06:52:59;18.30;99.90
21805;DHT22;11064;47.102;15.452;2023-08-12T06:55:24;18.50;99.90
21805;DHT22;11064;47.102;15.452;2023-08-12T06:57:50;18.70;99.90
21805;DHT22;11064;47.102;15.452;2023-08-12T07:00:16;18.90;99.90
21805;DHT22;11064;47.102;15.452;2023-08-12T07:02:42;19.00;99.90
21805;DHT22;11064;47.102;15.452;2023-08-12T07:05:08;19.10;99.90
21805;DHT22;11064;47.102;15.452;2023-08-12T07:07:34;19.30;99.90
21805;DHT22;11064;47.102;15.452;2023-08-12T07:10:00;19.50;99.90
21805;DHT22;11064;47.102;15.452;2023-08-12T07:12:26;19.70;99.90
21805;DHT22;11064;47.102;15.452;2023-08-12T07:14:52;19.70;99.90
21805;DHT22;11064;47.102;15.452;2023-08-12T07:17:18;19.80;99.90
21805;DHT22;11064;47.102;15.452;2023-08-12T07:19:44;19.90;99.90
21805;DHT22;11064;47.102;15.452;2023-08-12T07:22:09;20.10;99.90
21805;DHT22;11064;47.102;15.452;2023-08-12T07:24:35;20.20;99.90
21805;DHT22;11064;47.102;15.452;2023-08-12T07:27:01;20.40;99.90
21805;DHT22;11064;47.102;15.452;2023-08-12T07:29:27;20.60;99.90
21805;DHT22;11064;47.102;15.452;2023-08-12T07:31:53;20.70;99.90
21805;DHT22;11064;47.102;15.452;2023-08-12T07:34:19;20.80;99.90
21805;DHT22;11064;47.102;15.452;2023-08-12T07:36:45;20.90;99.90
21805;DHT22;11064;47.102;15.452;2023-08-12T07:39:11;21.00;99.90
21805;DHT22;11064;47.102;15.452;2023-08-12T07:41:37;21.10;99.90
21805;DHT22;11064;47.102;15.452;2023-08-12T07:44:04;21.30;99.90
21805;DHT22;11064;47.102;15.452;2023-08-12T07:46:30;21.40;99.90
21805;DHT22;11064;47.102;15.452;2023-08-12T07:48:56;21.60;99.90
21805;DHT22;11064;47.102;15.452;2023-08-12T07:51:22;21.60;99.90
21805;DHT22;11064;47.102;15.452;2023-08-12T07:53:48;21.80;99.90
21805;DHT22;11064;47.102;15.452;2023-08-12T07:56:14;21.90;99.90
21805;DHT22;11064;47.102;15.452;2023-08-12T07:58:40;21.90;99.90
21805;DHT22;11064;47.102;15.452;2023-08-12T08:01:06;22.10;99.90
21805;DHT22;11064;47.102;15.452;2023-08-12T08:03:34;22.20;99.90
21805;DHT22;11064;47.102;15.452;2023-08-12T08:06:00;22.40;99.90
21805;DHT22;11064;47.102;15.452;2023-08-12T08:08:25;22.60;99.90
21805;DHT22;11064;47.102;15.452;2023-08-12T08:10:51;22.70;99.90
21805;DHT22;11064;47.102;15.452;2023-08-12T08:13:17;22.80;99.90
21805;DHT22;11064;47.102;15.452;2023-08-12T08:15:43;23.00;99.90
21805;DHT22;11064;47.102;15.452;2023-08-12T08:18:09;23.00;99.90
21805;DHT22;11064;47.102;15.452;2023-08-12T08:20:35;23.00;99.90
21805;DHT22;11064;47.102;15.452;2023-08-12T08:23:01;23.00;99.90
21805;DHT22;11064;47.102;15.452;2023-08-12T08:25:27;23.20;99.90
21805;DHT22;11064;47.102;15.452;2023-08-12T08:27:53;23.30;99.90
21805;DHT22;11064;47.102;15.452;2023-08-12T08:30:19;23.10;99.90
21805;DHT22;11064;47.102;15.452;2023-08-12T08:32:44;22.90;99.90
21805;DHT22;11064;47.102;15.452;2023-08-12T08:35:12;23.10;99.90
21805;DHT22;11064;47.102;15.452;2023-08-12T08:37:38;23.10;99.90
21805;DHT22;11064;47.102;15.452;2023-08-12T08:40:04;23.20;99.40
21805;DHT22;11064;47.102;15.452;2023-08-12T08:42:31;23.20;98.90
21805;DHT22;11064;47.102;15.452;2023-08-12T08:45:00;23.30;99.90
21805;DHT22;11064;47.102;15.452;2023-08-12T08:47:29;23.40;98.70
21805;DHT22;11064;47.102;15.452;2023-08-12T08:49:56;23.30;97.80
21805;DHT22;11064;47.102;15.452;2023-08-12T08:52:25;23.50;99.10
21805;DHT22;11064;47.102;15.452;2023-08-12T08:54:52;23.50;96.80
21805;DHT22;11064;47.102;15.452;2023-08-12T08:57:19;23.50;97.00
21805;DHT22;11064;47.102;15.452;2023-08-12T08:59:45;23.50;96.10
21805;DHT22;11064;47.102;15.452;2023-08-12T09:02:16;23.60;97.70
21805;DHT22;11064;47.102;15.452;2023-08-12T09:04:46;23.80;98.50
21805;DHT22;11064;47.102;15.452;2023-08-12T09:07:13;23.90;96.30
21805;DHT22;11064;47.102;15.452;2023-08-12T09:09:45;23.90;97.20
21805;DHT22;11064;47.102;15.452;2023-08-12T09:12:15;24.00;96.30
21805;DHT22;11064;47.102;15.452;2023-08-12T09:14:42;24.20;98.30
21805;DHT22;11064;47.102;15.452;2023-08-12T09:17:09;24.20;96.90
21805;DHT22;11064;47.102;15.452;2023-08-12T09:19:35;24.30;96.80
21805;DHT22;11064;47.102;15.452;2023-08-12T09:22:04;24.30;97.80
21805;DHT22;11064;47.102;15.452;2023-08-12T09:24:31;24.40;98.10
21805;DHT22;11064;47.102;15.452;2023-08-12T09:26:56;24.50;97.90
21805;DHT22;11064;47.102;15.452;2023-08-12T09:29:33;24.50;94.50
21805;DHT22;11064;47.102;15.452;2023-08-12T09:32:12;24.40;97.20
21805;DHT22;11064;47.102;15.452;2023-08-12T09:34:53;24.40;95.30
21805;DHT22;11064;47.102;15.452;2023-08-12T09:37:22;24.50;98.10
21805;DHT22;11064;47.102;15.452;2023-08-12T09:39:49;24.60;97.00
21805;DHT22;11064;47.102;15.452;2023-08-12T09:42:17;24.90;96.50
21805;DHT22;11064;47.102;15.452;2023-08-12T09:44:43;24.60;94.30
21805;DHT22;11064;47.102;15.452;2023-08-12T09:47:10;24.70;96.90
21805;DHT22;11064;47.102;15.452;2023-08-12T09:49:37;24.80;96.40
21805;DHT22;11064;47.102;15.452;2023-08-12T09:52:04;24.90;99.90
21805;DHT22;11064;47.102;15.452;2023-08-12T09:54:36;25.00;99.70
21805;DHT22;11064;47.102;15.452;2023-08-12T09:57:04;25.00;98.80
21805;DHT22;11064;47.102;15.452;2023-08-12T09:59:33;25.20;97.70
21805;DHT22;11064;47.102;15.452;2023-08-12T10:02:01;25.20;97.80
21805;DHT22;11064;47.102;15.452;2023-08-12T10:04:37;25.30;98.40
21805;DHT22;11064;47.102;15.452;2023-08-12T10:07:05;25.30;99.90
21805;DHT22;11064;47.102;15.452;2023-08-12T10:09:33;25.40;98.50
21805;DHT22;11064;47.102;15.452;2023-08-12T10:12:00;25.40;98.60
21805;DHT22;11064;47.102;15.452;2023-08-12T10:14:26;25.40;97.90
21805;DHT22;11064;47.102;15.452;2023-08-12T10:16:53;25.30;98.60
21805;DHT22;11064;47.102;15.452;2023-08-12T10:19:21;25.20;96.50
21805;DHT22;11064;47.102;15.452;2023-08-12T10:21:55;25.30;96.80
21805;DHT22;11064;47.102;15.452;2023-08-12T10:24:28;25.30;97.20
21805;DHT22;11064;47.102;15.452;2023-08-12T10:26:54;25.50;99.30
21805;DHT22;11064;47.102;15.452;2023-08-12T10:29:22;25.40;98.70
21805;DHT22;11064;47.102;15.452;2023-08-12T10:31:48;25.40;98.30
21805;DHT22;11064;47.102;15.452;2023-08-12T10:34:24;25.50;97.50
21805;DHT22;11064;47.102;15.452;2023-08-12T10:37:00;25.50;98.10
21805;DHT22;11064;47.102;15.452;2023-08-12T10:39:27;25.60;98.60
21805;DHT22;11064;47.102;15.452;2023-08-12T10:41:56;25.50;95.10
21805;DHT22;11064;47.102;15.452;2023-08-12T10:44:40;25.50;96.10
21805;DHT22;11064;47.102;15.452;2023-08-12T10:47:14;25.70;97.60
21805;DHT22;11064;47.102;15.452;2023-08-12T10:49:44;25.80;99.50
21805;DHT22;11064;47.102;15.452;2023-08-12T10:52:39;25.90;96.20
21805;DHT22;11064;47.102;15.452;2023-08-12T10:55:23;25.70;98.30
21805;DHT22;11064;47.102;15.452;2023-08-12T10:57:53;25.80;98.10
21805;DHT22;11064;47.102;15.452;2023-08-12T11:00:25;25.80;97.60
21805;DHT22;11064;47.102;15.452;2023-08-12T11:02:56;26.00;94.10
21805;DHT22;11064;47.102;15.452;2023-08-12T11:05:22;25.90;96.10
21805;DHT22;11064;47.102;15.452;2023-08-12T11:07:59;25.80;96.10
21805;DHT22;11064;47.102;15.452;2023-08-12T11:10:32;25.90;98.10
21805;DHT22;11064;47.102;15.452;2023-08-12T11:12:58;25.80;94.30
21805;DHT22;11064;47.102;15.452;2023-08-12T11:17:58;26.00;97.10
21805;DHT22;11064;47.102;15.452;2023-08-12T11:20:25;26.00;97.20
21805;DHT22;11064;47.102;15.452;2023-08-12T11:22:53;26.20;97.80
21805;DHT22;11064;47.102;15.452;2023-08-12T11:25:19;26.30;97.00
21805;DHT22;11064;47.102;15.452;2023-08-12T11:27:47;26.40;95.80
21805;DHT22;11064;47.102;15.452;2023-08-12T11:30:20;26.10;96.30
21805;DHT22;11064;47.102;15.452;2023-08-12T11:32:49;26.30;97.80
21805;DHT22;11064;47.102;15.452;2023-08-12T11:35:16;26.30;96.00
21805;DHT22;11064;47.102;15.452;2023-08-12T11:37:45;26.30;95.20
21805;DHT22;11064;47.102;15.452;2023-08-12T11:40:12;26.30;95.30
21805;DHT22;11064;47.102;15.452;2023-08-12T11:42:41;26.30;94.40
21805;DHT22;11064;47.102;15.452;2023-08-12T11:45:08;26.20;96.10
21805;DHT22;11064;47.102;15.452;2023-08-12T11:47:36;26.30;95.20
21805;DHT22;11064;47.102;15.452;2023-08-12T11:50:10;26.50;97.10
21805;DHT22;11064;47.102;15.452;2023-08-12T11:52:37;26.60;97.20
21805;DHT22;11064;47.102;15.452;2023-08-12T11:55:04;26.60;92.70
21805;DHT22;11064;47.102;15.452;2023-08-12T11:57:31;26.50;92.40
21805;DHT22;11064;47.102;15.452;2023-08-12T12:00:05;26.50;94.50
21805;DHT22;11064;47.102;15.452;2023-08-12T12:02:41;26.70;95.20
21805;DHT22;11064;47.102;15.452;2023-08-12T12:05:11;26.60;94.80
21805;DHT22;11064;47.102;15.452;2023-08-12T12:07:38;26.60;93.70
21805;DHT22;11064;47.102;15.452;2023-08-12T12:10:05;26.50;93.50
21805;DHT22;11064;47.102;15.452;2023-08-12T12:12:33;26.60;94.70
21805;DHT22;11064;47.102;15.452;2023-08-12T12:15:01;26.70;94.70
21805;DHT22;11064;47.102;15.452;2023-08-12T12:17:27;26.70;94.00
21805;DHT22;11064;47.102;15.452;2023-08-12T12:19:58;26.70;93.40
21805;DHT22;11064;47.102;15.452;2023-08-12T12:22:29;26.60;91.30
21805;DHT22;11064;47.102;15.452;2023-08-12T12:24:57;26.50;91.80
21805;DHT22;11064;47.102;15.452;2023-08-12T12:27:24;26.40;91.90
21805;DHT22;11064;47.102;15.452;2023-08-12T12:29:50;26.50;92.60
21805;DHT22;11064;47.102;15.452;2023-08-12T12:32:18;26.60;94.30
21805;DHT22;11064;47.102;15.452;2023-08-12T12:34:45;26.70;92.60
21805;DHT22;11064;47.102;15.452;2023-08-12T12:37:13;26.80;93.10
21805;DHT22;11064;47.102;15.452;2023-08-12T12:39:39;26.70;93.90
21805;DHT22;11064;47.102;15.452;2023-08-12T12:42:05;26.60;93.50
21805;DHT22;11064;47.102;15.452;2023-08-12T12:44:31;26.60;92.00
21805;DHT22;11064;47.102;15.452;2023-08-12T12:46:57;26.50;93.10
21805;DHT22;11064;47.102;15.452;2023-08-12T12:49:23;26.50;90.90
21805;DHT22;11064;47.102;15.452;2023-08-12T12:51:49;26.30;91.30
21805;DHT22;11064;47.102;15.452;2023-08-12T12:54:15;26.20;88.20
21805;DHT22;11064;47.102;15.452;2023-08-12T12:56:41;26.20;92.30
21805;DHT22;11064;47.102;15.452;2023-08-12T12:59:07;26.30;90.70
21805;DHT22;11064;47.102;15.452;2023-08-12T13:01:33;26.40;91.30
21805;DHT22;11064;47.102;15.452;2023-08-12T13:03:59;26.60;91.20
21805;DHT22;11064;47.102;15.452;2023-08-12T13:06:25;26.80;91.10
21805;DHT22;11064;47.102;15.452;2023-08-12T13:08:51;26.70;91.40
21805;DHT22;11064;47.102;15.452;2023-08-12T13:11:17;26.50;88.20
21805;DHT22;11064;47.102;15.452;2023-08-12T13:13:42;26.50;90.50
21805;DHT22;11064;47.102;15.452;2023-08-12T13:16:08;26.70;89.00
21805;DHT22;11064;47.102;15.452;2023-08-12T13:18:34;26.60;91.20
21805;DHT22;11064;47.102;15.452;2023-08-12T13:21:00;26.50;90.60
21805;DHT22;11064;47.102;15.452;2023-08-12T13:23:26;26.50;89.00
21805;DHT22;11064;47.102;15.452;2023-08-12T13:25:53;26.40;89.40
21805;DHT22;11064;47.102;15.452;2023-08-12T13:28:18;26.40;90.30
21805;DHT22;11064;47.102;15.452;2023-08-12T13:30:45;26.50;90.80
21805;DHT22;11064;47.102;15.452;2023-08-12T13:33:11;26.50;92.30
21805;DHT22;11064;47.102;15.452;2023-08-12T13:35:37;26.50;89.10
21805;DHT22;11064;47.102;15.452;2023-08-12T13:38:03;26.80;90.70
21805;DHT22;11064;47.102;15.452;2023-08-12T13:40:29;26.80;90.10
21805;DHT22;11064;47.102;15.452;2023-08-12T13:42:56;26.80;84.90
21805;DHT22;11064;47.102;15.452;2023-08-12T13:45:22;26.80;86.90
21805;DHT22;11064;47.102;15.452;2023-08-12T13:47:50;26.90;86.60
21805;DHT22;11064;47.102;15.452;2023-08-12T13:50:17;26.80;86.40
21805;DHT22;11064;47.102;15.452;2023-08-12T13:52:42;26.80;90.80
21805;DHT22;11064;47.102;15.452;2023-08-12T13:55:08;26.90;91.30
21805;DHT22;11064;47.102;15.452;2023-08-12T13:57:35;27.10;90.60
21805;DHT22;11064;47.102;15.452;2023-08-12T14:00:01;27.10;91.10
21805;DHT22;11064;47.102;15.452;2023-08-12T14:02:27;27.10;91.10
21805;DHT22;11064;47.102;15.452;2023-08-12T14:04:54;26.90;90.90
21805;DHT22;11064;47.102;15.452;2023-08-12T14:07:20;27.00;91.80
21805;DHT22;11064;47.102;15.452;2023-08-12T14:09:46;27.00;90.10
21805;DHT22;11064;47.102;15.452;2023-08-12T14:12:12;27.10;90.50
21805;DHT22;11064;47.102;15.452;2023-08-12T14:14:38;26.80;91.30
21805;DHT22;11064;47.102;15.452;2023-08-12T14:17:05;26.80;90.70
21805;DHT22;11064;47.102;15.452;2023-08-12T14:19:31;26.70;90.90
21805;DHT22;11064;47.102;15.452;2023-08-12T14:21:57;26.90;91.50
21805;DHT22;11064;47.102;15.452;2023-08-12T14:24:23;27.00;91.10
21805;DHT22;11064;47.102;15.452;2023-08-12T14:26:49;26.90;90.70
21805;DHT22;11064;47.102;15.452;2023-08-12T14:29:15;26.90;89.90
21805;DHT22;11064;47.102;15.452;2023-08-12T14:31:41;26.70;87.00
21805;DHT22;11064;47.102;15.452;2023-08-12T14:34:07;26.60;90.20
21805;DHT22;11064;47.102;15.452;2023-08-12T14:36:33;26.60;91.00
21805;DHT22;11064;47.102;15.452;2023-08-12T14:38:58;26.70;90.30
21805;DHT22;11064;47.102;15.452;2023-08-12T14:41:24;26.70;90.20
21805;DHT22;11064;47.102;15.452;2023-08-12T14:43:50;26.70;89.40
21805;DHT22;11064;47.102;15.452;2023-08-12T14:46:16;26.60;85.30
21805;DHT22;11064;47.102;15.452;2023-08-12T14:48:42;26.50;89.60
21805;DHT22;11064;47.102;15.452;2023-08-12T14:51:08;26.50;89.80
21805;DHT22;11064;47.102;15.452;2023-08-12T14:53:33;26.50;88.80
21805;DHT22;11064;47.102;15.452;2023-08-12T14:55:59;26.30;87.00
21805;DHT22;11064;47.102;15.452;2023-08-12T14:58:26;26.30;89.10
21805;DHT22;11064;47.102;15.452;2023-08-12T15:00:52;26.10;89.50
21805;DHT22;11064;47.102;15.452;2023-08-12T15:03:18;26.00;90.00
21805;DHT22;11064;47.102;15.452;2023-08-12T15:05:43;26.00;90.50
21805;DHT22;11064;47.102;15.452;2023-08-12T15:08:09;26.00;90.60
21805;DHT22;11064;47.102;15.452;2023-08-12T15:10:35;25.90;91.00
21805;DHT22;11064;47.102;15.452;2023-08-12T15:13:01;25.80;90.80
21805;DHT22;11064;47.102;15.452;2023-08-12T15:15:27;25.80;91.10
21805;DHT22;11064;47.102;15.452;2023-08-12T15:17:52;25.80;90.80
21805;DHT22;11064;47.102;15.452;2023-08-12T15:20:18;25.70;91.40
21805;DHT22;11064;47.102;15.452;2023-08-12T15:22:44;25.60;91.30
21805;DHT22;11064;47.102;15.452;2023-08-12T15:25:10;25.60;91.60
21805;DHT22;11064;47.102;15.452;2023-08-12T15:27:36;25.50;91.00
21805;DHT22;11064;47.102;15.452;2023-08-12T15:30:02;25.50;91.30
21805;DHT22;11064;47.102;15.452;2023-08-12T15:32:28;25.40;91.60
21805;DHT22;11064;47.102;15.452;2023-08-12T15:34:56;25.40;91.90
21805;DHT22;11064;47.102;15.452;2023-08-12T15:37:22;25.20;92.60